sensor_id;sensor_type;location;lat;lon;timestamp;pressure;altitude;pressure_sealevel;temperature;humidity
70589;BME280;58152;49.202;18.744;2023-04-29T00:00:23;97170.00;;;11.71;58.08
70589;BME280;58152;49.202;18.744;2023-04-29T00:03:14;97154.47;;;11.67;57.65
70589;BME280;58152;49.202;18.744;2023-04-29T00:06:04;97153.72;;;11.65;59.03
70589;BME280;58152;49.202;18.744;2023-04-29T00:08:59;97157.19;;;11.65;57.67
70589;BME280;58152;49.202;18.744;2023-04-29T00:11:52;97160.66;;;11.66;58.39
70589;BME280;58152;49.202;18.744;2023-04-29T00:14:47;97165.09;;;11.65;59.19
70589;BME280;58152;49.202;18.744;2023-04-29T00:17:42;97149.66;;;11.59;58.14
70589;BME280;58152;49.202;18.744;2023-04-29T00:20:36;97166.91;;;11.63;58.53
70589;BME280;58152;49.202;18.744;2023-04-29T00:23:38;97150.38;;;11.45;58.74
70589;BME280;58152;49.202;18.744;2023-04-29T00:26:36;97142.53;;;11.44;58.58
70589;BME280;58152;49.202;18.744;2023-04-29T00:29:07;97148.50;;;11.48;57.87
70589;BME280;58152;49.202;18.744;2023-04-29T00:34:46;97144.88;;;11.50;58.46
70589;BME280;58152;49.202;18.744;2023-04-29T00:37:26;97137.28;;;11.44;59.05
70589;BME280;58152;49.202;18.744;2023-04-29T00:40:23;97133.97;;;11.40;58.26
70589;BME280;58152;49.202;18.744;2023-04-29T00:42:58;97144.25;;;11.45;58.75
70589;BME280;58152;49.202;18.744;2023-04-29T00:45:38;97140.75;;;11.44;59.09
70589;BME280;58152;49.202;18.744;2023-04-29T00:48:18;97141.56;;;11.47;59.20
70589;BME280;58152;49.202;18.744;2023-04-29T00:50:50;97138.38;;;11.40;59.08
70589;BME280;58152;49.202;18.744;2023-04-29T00:53:44;97138.56;;;11.37;59.06
70589;BME280;58152;49.202;18.744;2023-04-29T00:56:14;97153.38;;;11.38;58.44
70589;BME280;58152;49.202;18.744;2023-04-29T01:01:44;97134.22;;;11.36;59.06
70589;BME280;58152;49.202;18.744;2023-04-29T01:07:47;97146.25;;;11.40;58.73
70589;BME280;58152;49.202;18.744;2023-04-29T01:17:14;97129.00;;;11.18;59.83
70589;BME280;58152;49.202;18.744;2023-04-29T01:20:02;97130.38;;;11.26;59.61
70589;BME280;58152;49.202;18.744;2023-04-29T01:22:30;97129.44;;;11.27;59.35
70589;BME280;58152;49.202;18.744;2023-04-29T01:25:25;97136.47;;;11.26;59.08
70589;BME280;58152;49.202;18.744;2023-04-29T01:31:22;97133.22;;;11.21;59.62
70589;BME280;58152;49.202;18.744;2023-04-29T01:34:18;97135.47;;;11.29;59.21
70589;BME280;58152;49.202;18.744;2023-04-29T01:46:35;97115.78;;;11.20;58.64
70589;BME280;58152;49.202;18.744;2023-04-29T01:49:17;97115.69;;;11.22;59.49
70589;BME280;58152;49.202;18.744;2023-04-29T01:51:58;97124.34;;;11.24;59.45
70589;BME280;58152;49.202;18.744;2023-04-29T01:55:28;97127.13;;;11.20;60.15
70589;BME280;58152;49.202;18.744;2023-04-29T01:57:53;97139.75;;;11.14;59.55
70589;BME280;58152;49.202;18.744;2023-04-29T02:00:19;97136.31;;;11.12;59.78
70589;BME280;58152;49.202;18.744;2023-04-29T02:02:45;97134.53;;;11.12;59.77
70589;BME280;58152;49.202;18.744;2023-04-29T02:05:12;97137.16;;;11.12;59.57
70589;BME280;58152;49.202;18.744;2023-04-29T02:07:38;97133.69;;;11.12;59.62
70589;BME280;58152;49.202;18.744;2023-04-29T02:10:04;97144.16;;;11.13;60.28
70589;BME280;58152;49.202;18.744;2023-04-29T02:12:29;97135.47;;;11.11;59.98
70589;BME280;58152;49.202;18.744;2023-04-29T02:14:58;97138.19;;;11.10;59.59
70589;BME280;58152;49.202;18.744;2023-04-29T02:17:24;97125.91;;;11.10;60.23
70589;BME280;58152;49.202;18.744;2023-04-29T02:19:50;97137.16;;;11.12;59.99
70589;BME280;58152;49.202;18.744;2023-04-29T02:22:15;97124.28;;;11.08;60.14
70589;BME280;58152;49.202;18.744;2023-04-29T02:24:42;97124.44;;;11.05;59.96
70589;BME280;58152;49.202;18.744;2023-04-29T02:27:10;97128.06;;;11.02;60.00
70589;BME280;58152;49.202;18.744;2023-04-29T02:29:35;97125.53;;;11.01;59.63
70589;BME280;58152;49.202;18.744;2023-04-29T02:32:01;97128.06;;;11.02;60.08
70589;BME280;58152;49.202;18.744;2023-04-29T02:34:26;97131.47;;;11.04;59.98
70589;BME280;58152;49.202;18.744;2023-04-29T02:36:52;97114.94;;;11.02;60.28
70589;BME280;58152;49.202;18.744;2023-04-29T02:39:17;97126.47;;;11.00;60.07
70589;BME280;58152;49.202;18.744;2023-04-29T02:41:44;97119.25;;;11.03;60.28
70589;BME280;58152;49.202;18.744;2023-04-29T02:44:10;97114.19;;;11.00;60.70
70589;BME280;58152;49.202;18.744;2023-04-29T02:46:35;97114.09;;;11.02;60.50
70589;BME280;58152;49.202;18.744;2023-04-29T02:49:02;97121.66;;;11.08;60.38
70589;BME280;58152;49.202;18.744;2023-04-29T02:51:28;97123.53;;;11.06;59.96
70589;BME280;58152;49.202;18.744;2023-04-29T02:53:53;97120.81;;;11.07;59.58
70589;BME280;58152;49.202;18.744;2023-04-29T02:56:19;97120.75;;;11.09;59.79
70589;BME280;58152;49.202;18.744;2023-04-29T02:58:45;97113.03;;;11.06;60.37
70589;BME280;58152;49.202;18.744;2023-04-29T03:01:11;97112.31;;;11.02;60.15
70589;BME280;58152;49.202;18.744;2023-04-29T03:03:36;97104.59;;;10.99;60.01
70589;BME280;58152;49.202;18.744;2023-04-29T03:06:02;97107.91;;;11.03;60.39
70589;BME280;58152;49.202;18.744;2023-04-29T03:08:28;97104.53;;;11.01;60.16
70589;BME280;58152;49.202;18.744;2023-04-29T03:10:53;97099.53;;;10.96;60.74
70589;BME280;58152;49.202;18.744;2023-04-29T03:13:18;97108.25;;;10.97;60.57
70589;BME280;58152;49.202;18.744;2023-04-29T03:15:45;97115.03;;;11.01;60.70
70589;BME280;58152;49.202;18.744;2023-04-29T03:18:14;97114.34;;;10.97;60.70
70589;BME280;58152;49.202;18.744;2023-04-29T03:20:40;97111.84;;;10.94;60.49
70589;BME280;58152;49.202;18.744;2023-04-29T03:23:06;97109.16;;;10.96;61.28
70589;BME280;58152;49.202;18.744;2023-04-29T03:25:31;97094.50;;;10.91;61.28
70589;BME280;58152;49.202;18.744;2023-04-29T03:27:57;97097.81;;;10.95;61.20
70589;BME280;58152;49.202;18.744;2023-04-29T03:30:23;97093.56;;;10.92;61.24
70589;BME280;58152;49.202;18.744;2023-04-29T03:32:48;97105.47;;;11.00;60.83
70589;BME280;58152;49.202;18.744;2023-04-29T03:35:14;97107.22;;;10.99;61.67
70589;BME280;58152;49.202;18.744;2023-04-29T03:37:39;97100.44;;;10.95;61.36
70589;BME280;58152;49.202;18.744;2023-04-29T03:40:07;97107.31;;;10.98;61.15
70589;BME280;58152;49.202;18.744;2023-04-29T03:42:32;97109.09;;;10.97;61.52
70589;BME280;58152;49.202;18.744;2023-04-29T03:44:58;97109.16;;;10.96;61.19
70589;BME280;58152;49.202;18.744;2023-04-29T03:47:24;97118.75;;;10.97;62.00
70589;BME280;58152;49.202;18.744;2023-04-29T03:49:49;97113.63;;;10.93;61.72
70589;BME280;58152;49.202;18.744;2023-04-29T03:52:15;97119.81;;;10.92;61.72
70589;BME280;58152;49.202;18.744;2023-04-29T03:54:40;97116.25;;;10.93;62.10
70589;BME280;58152;49.202;18.744;2023-04-29T03:57:06;97118.88;;;10.93;62.09
70589;BME280;58152;49.202;18.744;2023-04-29T03:59:32;97118.97;;;10.92;62.00
70589;BME280;58152;49.202;18.744;2023-04-29T04:01:57;97112.94;;;10.90;62.03
70589;BME280;58152;49.202;18.744;2023-04-29T04:04:23;97120.66;;;10.93;61.98
70589;BME280;58152;49.202;18.744;2023-04-29T04:06:48;97123.44;;;10.90;61.49
70589;BME280;58152;49.202;18.744;2023-04-29T04:09:16;97121.72;;;10.89;62.44
70589;BME280;58152;49.202;18.744;2023-04-29T04:11:42;97127.78;;;10.91;62.43
70589;BME280;58152;49.202;18.744;2023-04-29T04:14:08;97120.13;;;10.86;62.38
70589;BME280;58152;49.202;18.744;2023-04-29T04:16:33;97119.44;;;10.83;62.29
70589;BME280;58152;49.202;18.744;2023-04-29T04:18:59;97132.19;;;10.90;62.82
70589;BME280;58152;49.202;18.744;2023-04-29T04:21:25;97121.91;;;10.86;62.52
70589;BME280;58152;49.202;18.744;2023-04-29T04:23:51;97122.91;;;10.83;62.87
70589;BME280;58152;49.202;18.744;2023-04-29T04:29:13;97124.53;;;10.86;62.04
70589;BME280;58152;49.202;18.744;2023-04-29T04:31:39;97117.75;;;10.82;62.39
70589;BME280;58152;49.202;18.744;2023-04-29T04:34:04;97114.50;;;10.77;62.31
70589;BME280;58152;49.202;18.744;2023-04-29T04:36:30;97125.84;;;10.77;62.75
70589;BME280;58152;49.202;18.744;2023-04-29T04:38:57;97125.22;;;10.72;63.19
70589;BME280;58152;49.202;18.744;2023-04-29T04:41:22;97116.66;;;10.68;63.30
70589;BME280;58152;49.202;18.744;2023-04-29T04:43:51;97128.59;;;10.74;63.41
70589;BME280;58152;49.202;18.744;2023-04-29T04:46:16;97123.44;;;10.73;63.61
70589;BME280;58152;49.202;18.744;2023-04-29T04:48:44;97115.63;;;10.71;63.35
70589;BME280;58152;49.202;18.744;2023-04-29T04:51:13;97123.22;;;10.77;63.58
70589;BME280;58152;49.202;18.744;2023-04-29T04:53:39;97119.81;;;10.75;63.11
70589;BME280;58152;49.202;18.744;2023-04-29T04:56:05;97125.22;;;10.72;63.23
70589;BME280;58152;49.202;18.744;2023-04-29T04:58:31;97116.66;;;10.68;63.14
70589;BME280;58152;49.202;18.744;2023-04-29T05:01:00;97124.19;;;10.75;63.59
70589;BME280;58152;49.202;18.744;2023-04-29T05:03:26;97119.19;;;10.70;63.72
70589;BME280;58152;49.202;18.744;2023-04-29T05:05:53;97123.22;;;10.77;63.27
70589;BME280;58152;49.202;18.744;2023-04-29T05:08:18;97118.81;;;10.78;63.62
70589;BME280;58152;49.202;18.744;2023-04-29T05:10:44;97125.66;;;10.80;63.66
70589;BME280;58152;49.202;18.744;2023-04-29T05:13:09;97121.50;;;10.76;63.72
70589;BME280;58152;49.202;18.744;2023-04-29T05:15:35;97120.50;;;10.79;63.10
70589;BME280;58152;49.202;18.744;2023-04-29T05:18:00;97112.09;;;10.72;63.48
70589;BME280;58152;49.202;18.744;2023-04-29T05:20:26;97126.69;;;10.78;63.41
70589;BME280;58152;49.202;18.744;2023-04-29T05:22:51;97125.59;;;10.82;63.49
70589;BME280;58152;49.202;18.744;2023-04-29T05:25:17;97110.09;;;10.77;63.45
70589;BME280;58152;49.202;18.744;2023-04-29T05:27:42;97112.63;;;10.79;63.22
70589;BME280;58152;49.202;18.744;2023-04-29T05:30:18;97130.47;;;10.89;62.71
70589;BME280;58152;49.202;18.744;2023-04-29T05:32:43;97113.34;;;10.82;62.86
70589;BME280;58152;49.202;18.744;2023-04-29T05:35:13;97133.94;;;10.90;63.21
70589;BME280;58152;49.202;18.744;2023-04-29T05:37:42;97119.53;;;10.81;63.16
70589;BME280;58152;49.202;18.744;2023-04-29T05:40:23;97123.84;;;10.82;62.83
70589;BME280;58152;49.202;18.744;2023-04-29T05:42:49;97127.91;;;10.88;62.61
70589;BME280;58152;49.202;18.744;2023-04-29T05:45:14;97128.38;;;10.96;62.61
70589;BME280;58152;49.202;18.744;2023-04-29T05:47:42;97126.69;;;10.95;62.53
70589;BME280;58152;49.202;18.744;2023-04-29T05:50:08;97127.69;;;10.92;62.67
70589;BME280;58152;49.202;18.744;2023-04-29T05:52:33;97121.34;;;10.97;62.99
70589;BME280;58152;49.202;18.744;2023-04-29T05:54:58;97124.69;;;11.00;62.41
70589;BME280;58152;49.202;18.744;2023-04-29T05:57:24;97127.00;;;11.06;62.60
70589;BME280;58152;49.202;18.744;2023-04-29T05:59:49;97122.44;;;11.10;62.45
70589;BME280;58152;49.202;18.744;2023-04-29T06:02:15;97130.09;;;11.14;62.03
70589;BME280;58152;49.202;18.744;2023-04-29T06:04:40;97125.59;;;11.16;62.01
70589;BME280;58152;49.202;18.744;2023-04-29T06:07:06;97121.19;;;11.17;62.61
70589;BME280;58152;49.202;18.744;2023-04-29T06:09:34;97121.78;;;11.22;61.92
70589;BME280;58152;49.202;18.744;2023-04-29T06:12:00;97136.47;;;11.26;62.30
70589;BME280;58152;49.202;18.744;2023-04-29T06:14:27;97130.31;;;11.27;62.70
70589;BME280;58152;49.202;18.744;2023-04-29T06:16:52;97125.91;;;11.28;61.73
70589;BME280;58152;49.202;18.744;2023-04-29T06:19:18;97125.47;;;11.35;62.26
70589;BME280;58152;49.202;18.744;2023-04-29T06:21:43;97132.38;;;11.38;62.03
70589;BME280;58152;49.202;18.744;2023-04-29T06:24:09;97134.84;;;11.41;62.49
70589;BME280;58152;49.202;18.744;2023-04-29T06:26:37;97130.69;;;11.37;62.01
70589;BME280;58152;49.202;18.744;2023-04-29T06:29:06;97145.72;;;11.51;62.60
70589;BME280;58152;49.202;18.744;2023-04-29T06:31:31;97142.66;;;11.58;61.71
70589;BME280;58152;49.202;18.744;2023-04-29T06:33:57;97139.28;;;11.56;61.61
70589;BME280;58152;49.202;18.744;2023-04-29T06:36:25;97146.16;;;11.59;61.05
70589;BME280;58152;49.202;18.744;2023-04-29T06:38:51;97133.34;;;11.53;61.04
70589;BME280;58152;49.202;18.744;2023-04-29T06:41:17;97136.75;;;11.55;61.77
70589;BME280;58152;49.202;18.744;2023-04-29T06:43:42;97139.44;;;11.53;60.70
70589;BME280;58152;49.202;18.744;2023-04-29T06:46:08;97142.91;;;11.54;60.78
70589;BME280;58152;49.202;18.744;2023-04-29T06:48:34;97140.28;;;11.54;60.99
70589;BME280;58152;49.202;18.744;2023-04-29T06:51:00;97143.44;;;11.60;61.00
70589;BME280;58152;49.202;18.744;2023-04-29T06:53:26;97144.41;;;11.59;60.79
70589;BME280;58152;49.202;18.744;2023-04-29T06:55:51;97147.94;;;11.58;60.71
70589;BME280;58152;49.202;18.744;2023-04-29T06:58:18;97138.91;;;11.64;60.24
70589;BME280;58152;49.202;18.744;2023-04-29T07:00:45;97129.38;;;11.61;60.77
70589;BME280;58152;49.202;18.744;2023-04-29T07:03:11;97140.59;;;11.65;60.53
70589;BME280;58152;49.202;18.744;2023-04-29T07:05:37;97149.22;;;11.67;59.53
70589;BME280;58152;49.202;18.744;2023-04-29T07:08:07;97149.41;;;11.64;60.14
70589;BME280;58152;49.202;18.744;2023-04-29T07:10:33;97156.25;;;11.66;60.00
70589;BME280;58152;49.202;18.744;2023-04-29T07:12:58;97159.81;;;11.65;59.58
70589;BME280;58152;49.202;18.744;2023-04-29T07:15:25;97152.88;;;11.64;60.18
70589;BME280;58152;49.202;18.744;2023-04-29T07:17:50;97141.44;;;11.65;60.08
70589;BME280;58152;49.202;18.744;2023-04-29T07:20:16;97142.97;;;11.69;60.10
70589;BME280;58152;49.202;18.744;2023-04-29T07:22:41;97142.72;;;11.74;60.02
70589;BME280;58152;49.202;18.744;2023-04-29T07:25:07;97139.06;;;11.77;60.29
70589;BME280;58152;49.202;18.744;2023-04-29T07:27:33;97137.28;;;11.77;60.23
70589;BME280;58152;49.202;18.744;2023-04-29T07:30:00;97143.63;;;11.90;59.65
70589;BME280;58152;49.202;18.744;2023-04-29T07:32:25;97145.25;;;11.93;59.69
70589;BME280;58152;49.202;18.744;2023-04-29T07:34:51;97140.50;;;12.00;59.58
70589;BME280;58152;49.202;18.744;2023-04-29T07:37:17;97153.97;;;12.09;59.54
70589;BME280;58152;49.202;18.744;2023-04-29T07:39:42;97149.59;;;12.10;59.64
70589;BME280;58152;49.202;18.744;2023-04-29T07:42:07;97148.41;;;12.15;58.79
70589;BME280;58152;49.202;18.744;2023-04-29T07:44:33;97155.84;;;12.23;59.00
70589;BME280;58152;49.202;18.744;2023-04-29T07:47:01;97146.13;;;12.25;59.36
70589;BME280;58152;49.202;18.744;2023-04-29T07:49:27;97159.00;;;12.30;59.07
70589;BME280;58152;49.202;18.744;2023-04-29T07:52:01;97148.50;;;12.30;59.11
70589;BME280;58152;49.202;18.744;2023-04-29T07:54:30;97156.22;;;12.33;58.73
70589;BME280;58152;49.202;18.744;2023-04-29T07:56:57;97157.72;;;12.37;58.61
70589;BME280;58152;49.202;18.744;2023-04-29T07:59:22;97160.28;;;12.38;58.57
70589;BME280;58152;49.202;18.744;2023-04-29T08:01:48;97148.97;;;12.36;58.50
70589;BME280;58152;49.202;18.744;2023-04-29T08:04:13;97157.47;;;12.41;57.95
70589;BME280;58152;49.202;18.744;2023-04-29T08:06:39;97147.97;;;12.39;57.98
70589;BME280;58152;49.202;18.744;2023-04-29T08:09:06;97160.97;;;12.42;57.72
70589;BME280;58152;49.202;18.744;2023-04-29T08:11:31;97160.09;;;12.41;57.13
70589;BME280;58152;49.202;18.744;2023-04-29T08:13:57;97168.00;;;12.41;57.07
70589;BME280;58152;49.202;18.744;2023-04-29T08:16:24;97167.34;;;12.38;56.33
70589;BME280;58152;49.202;18.744;2023-04-29T08:18:51;97172.50;;;12.39;56.18
70589;BME280;58152;49.202;18.744;2023-04-29T08:21:17;97174.28;;;12.39;56.17
70589;BME280;58152;49.202;18.744;2023-04-29T08:23:42;97166.41;;;12.39;56.37
70589;BME280;58152;49.202;18.744;2023-04-29T08:26:09;97171.91;;;12.34;56.35
70589;BME280;58152;49.202;18.744;2023-04-29T08:28:35;97170.88;;;12.37;55.31
70589;BME280;58152;49.202;18.744;2023-04-29T08:31:00;97170.81;;;12.38;56.04
70589;BME280;58152;49.202;18.744;2023-04-29T08:33:26;97173.44;;;12.38;55.59
70589;BME280;58152;49.202;18.744;2023-04-29T08:35:58;97177.06;;;12.36;55.17
70589;BME280;58152;49.202;18.744;2023-04-29T08:38:28;97173.50;;;12.37;55.68
70589;BME280;58152;49.202;18.744;2023-04-29T08:40:54;97182.03;;;12.42;55.21
70589;BME280;58152;49.202;18.744;2023-04-29T08:43:21;97175.03;;;12.41;55.85
70589;BME280;58152;49.202;18.744;2023-04-29T08:45:49;97182.88;;;12.42;55.63
70589;BME280;58152;49.202;18.744;2023-04-29T08:48:16;97182.19;;;12.39;55.66
70589;BME280;58152;49.202;18.744;2023-04-29T08:50:42;97172.84;;;12.33;55.67
70589;BME280;58152;49.202;18.744;2023-04-29T08:53:08;97178.19;;;12.32;55.51
70589;BME280;58152;49.202;18.744;2023-04-29T08:55:36;97181.84;;;12.29;55.31
70589;BME280;58152;49.202;18.744;2023-04-29T08:58:07;97171.72;;;12.21;55.56
70589;BME280;58152;49.202;18.744;2023-04-29T09:00:34;97166.63;;;12.18;55.48
70589;BME280;58152;49.202;18.744;2023-04-29T09:03:03;97166.72;;;12.17;55.08
70589;BME280;58152;49.202;18.744;2023-04-29T09:05:35;97189.19;;;12.23;55.50
70589;BME280;58152;49.202;18.744;2023-04-29T09:08:03;97177.78;;;12.24;55.47
70589;BME280;58152;49.202;18.744;2023-04-29T09:10:29;97179.53;;;12.23;55.40
70589;BME280;58152;49.202;18.744;2023-04-29T09:12:55;97177.78;;;12.24;55.41
70589;BME280;58152;49.202;18.744;2023-04-29T09:15:22;97166.72;;;12.17;54.85
70589;BME280;58152;49.202;18.744;2023-04-29T09:17:47;97171.47;;;12.10;54.76
70589;BME280;58152;49.202;18.744;2023-04-29T09:22:49;97170.78;;;12.07;55.03
70589;BME280;58152;49.202;18.744;2023-04-29T09:25:15;97170.00;;;12.05;55.37
70589;BME280;58152;49.202;18.744;2023-04-29T09:27:40;97169.25;;;12.03;54.73
70589;BME280;58152;49.202;18.744;2023-04-29T09:30:07;97182.25;;;12.06;55.54
70589;BME280;58152;49.202;18.744;2023-04-29T09:32:33;97173.56;;;12.04;55.66
70589;BME280;58152;49.202;18.744;2023-04-29T09:34:58;97175.81;;;12.11;55.24
70589;BME280;58152;49.202;18.744;2023-04-29T09:37:43;97172.31;;;12.11;55.53
70589;BME280;58152;49.202;18.744;2023-04-29T09:40:26;97186.75;;;12.19;54.94
70589;BME280;58152;49.202;18.744;2023-04-29T09:42:54;97172.81;;;12.17;55.45
70589;BME280;58152;49.202;18.744;2023-04-29T09:45:38;97185.72;;;12.22;55.56
70589;BME280;58152;49.202;18.744;2023-04-29T09:48:04;97185.72;;;12.22;55.70
70589;BME280;58152;49.202;18.744;2023-04-29T09:50:34;97181.25;;;12.24;55.00
70589;BME280;58152;49.202;18.744;2023-04-29T09:53:01;97180.56;;;12.20;55.28
70589;BME280;58152;49.202;18.744;2023-04-29T09:55:27;97168.50;;;12.16;55.15
70589;BME280;58152;49.202;18.744;2023-04-29T09:57:54;97168.16;;;12.23;54.32
70589;BME280;58152;49.202;18.744;2023-04-29T10:00:20;97173.34;;;12.24;55.46
70589;BME280;58152;49.202;18.744;2023-04-29T10:02:47;97180.06;;;12.30;55.21
70589;BME280;58152;49.202;18.744;2023-04-29T10:05:18;97179.97;;;12.31;54.79
70589;BME280;58152;49.202;18.744;2023-04-29T10:08:14;97189.63;;;12.31;55.11
70589;BME280;58152;49.202;18.744;2023-04-29T10:10:40;97172.56;;;12.22;55.34
70589;BME280;58152;49.202;18.744;2023-04-29T10:13:08;97175.22;;;12.22;55.35
70589;BME280;58152;49.202;18.744;2023-04-29T10:15:38;97171.22;;;12.31;54.88
70589;BME280;58152;49.202;18.744;2023-04-29T10:18:17;97165.72;;;12.35;54.79
70589;BME280;58152;49.202;18.744;2023-04-29T10:20:45;97176.66;;;12.43;55.20
70589;BME280;58152;49.202;18.744;2023-04-29T10:23:12;97161.97;;;12.39;54.99
70589;BME280;58152;49.202;18.744;2023-04-29T10:25:38;97166.31;;;12.40;54.88
70589;BME280;58152;49.202;18.744;2023-04-29T10:28:09;97172.25;;;12.44;54.88
70589;BME280;58152;49.202;18.744;2023-04-29T10:30:39;97167.66;;;12.48;54.43
70589;BME280;58152;49.202;18.744;2023-04-29T10:33:09;97172.84;;;12.49;55.11
70589;BME280;58152;49.202;18.744;2023-04-29T10:35:36;97167.47;;;12.51;54.82
70589;BME280;58152;49.202;18.744;2023-04-29T10:38:38;97173.63;;;12.51;54.94
70589;BME280;58152;49.202;18.744;2023-04-29T10:40:57;97171.56;;;12.56;54.76
70589;BME280;58152;49.202;18.744;2023-04-29T10:43:25;97169.69;;;12.58;54.48
70589;BME280;58152;49.202;18.744;2023-04-29T10:46:17;97160.59;;;12.64;55.22
70589;BME280;58152;49.202;18.744;2023-04-29T10:48:44;97160.34;;;12.68;54.69
70589;BME280;58152;49.202;18.744;2023-04-29T10:51:09;97153.69;;;12.77;54.59
70589;BME280;58152;49.202;18.744;2023-04-29T10:53:35;97150.38;;;12.89;54.09
70589;BME280;58152;49.202;18.744;2023-04-29T10:56:20;97140.16;;;12.99;54.35
70589;BME280;58152;49.202;18.744;2023-04-29T10:58:46;97139.78;;;13.05;53.94
70589;BME280;58152;49.202;18.744;2023-04-29T11:01:14;97134.91;;;13.13;53.69
70589;BME280;58152;49.202;18.744;2023-04-29T11:03:51;97124.66;;;13.25;53.81
70589;BME280;58152;49.202;18.744;2023-04-29T11:09:13;97125.34;;;13.42;53.28
70589;BME280;58152;49.202;18.744;2023-04-29T11:14:08;97130.22;;;13.48;53.02
70589;BME280;58152;49.202;18.744;2023-04-29T11:16:35;97132.59;;;13.53;53.04
70589;BME280;58152;49.202;18.744;2023-04-29T11:19:07;97128.06;;;13.55;53.35
70589;BME280;58152;49.202;18.744;2023-04-29T11:21:34;97134.84;;;13.59;52.92
70589;BME280;58152;49.202;18.744;2023-04-29T11:24:01;97132.75;;;13.50;53.59
70589;BME280;58152;49.202;18.744;2023-04-29T11:26:27;97129.16;;;13.51;54.08
70589;BME280;58152;49.202;18.744;2023-04-29T11:28:55;97122.97;;;13.52;53.69
70589;BME280;58152;49.202;18.744;2023-04-29T11:31:25;97117.16;;;13.47;53.98
70589;BME280;58152;49.202;18.744;2023-04-29T11:33:55;97123.06;;;13.51;54.80
70589;BME280;58152;49.202;18.744;2023-04-29T11:36:21;97122.31;;;13.48;54.44
70589;BME280;58152;49.202;18.744;2023-04-29T11:38:46;97119.13;;;13.43;54.13
70589;BME280;58152;49.202;18.744;2023-04-29T11:41:15;97131.91;;;13.50;54.21
70589;BME280;58152;49.202;18.744;2023-04-29T11:43:41;97125.22;;;13.44;54.68
70589;BME280;58152;49.202;18.744;2023-04-29T11:46:11;97134.25;;;13.40;54.74
70589;BME280;58152;49.202;18.744;2023-04-29T11:48:45;97125.00;;;13.33;54.44
70589;BME280;58152;49.202;18.744;2023-04-29T11:51:20;97127.91;;;13.28;54.53
70589;BME280;58152;49.202;18.744;2023-04-29T11:53:46;97132.63;;;13.23;54.91
70589;BME280;58152;49.202;18.744;2023-04-29T11:56:12;97135.41;;;13.20;54.87
70589;BME280;58152;49.202;18.744;2023-04-29T11:58:43;97141.47;;;13.22;54.76
70589;BME280;58152;49.202;18.744;2023-04-29T12:01:11;97150.66;;;13.15;54.72
70589;BME280;58152;49.202;18.744;2023-04-29T12:03:40;97160.31;;;13.14;55.12
70589;BME280;58152;49.202;18.744;2023-04-29T12:06:07;97160.41;;;13.13;55.07
70589;BME280;58152;49.202;18.744;2023-04-29T12:08:35;97152.94;;;13.05;55.72
70589;BME280;58152;49.202;18.744;2023-04-29T12:11:00;97169.69;;;13.04;55.69
70589;BME280;58152;49.202;18.744;2023-04-29T12:13:28;97174.28;;;13.01;56.85
70589;BME280;58152;49.202;18.744;2023-04-29T12:15:55;97180.34;;;13.03;56.78
70589;BME280;58152;49.202;18.744;2023-04-29T12:18:22;97180.16;;;13.06;57.30
70589;BME280;58152;49.202;18.744;2023-04-29T12:20:48;97186.84;;;13.11;57.47
70589;BME280;58152;49.202;18.744;2023-04-29T12:23:24;97192.28;;;13.08;57.70
70589;BME280;58152;49.202;18.744;2023-04-29T12:25:55;97209.13;;;13.06;57.82
70589;BME280;58152;49.202;18.744;2023-04-29T12:28:21;97218.56;;;12.94;58.53
70589;BME280;58152;49.202;18.744;2023-04-29T12:30:47;97223.25;;;12.89;59.83
70589;BME280;58152;49.202;18.744;2023-04-29T12:33:28;97228.00;;;12.82;61.44
70589;BME280;58152;49.202;18.744;2023-04-29T12:35:55;97221.56;;;12.72;60.90
70589;BME280;58152;49.202;18.744;2023-04-29T12:38:22;97222.59;;;12.69;61.11
70589;BME280;58152;49.202;18.744;2023-04-29T12:40:58;97214.00;;;12.66;62.06
70589;BME280;58152;49.202;18.744;2023-04-29T12:43:48;97208.91;;;12.63;63.21
70589;BME280;58152;49.202;18.744;2023-04-29T12:46:38;97208.41;;;12.56;62.79
70589;BME280;58152;49.202;18.744;2023-04-29T12:49:05;97207.72;;;12.53;62.85
70589;BME280;58152;49.202;18.744;2023-04-29T12:51:32;97212.91;;;12.54;63.54
70589;BME280;58152;49.202;18.744;2023-04-29T12:54:01;97202.56;;;12.51;63.82
70589;BME280;58152;49.202;18.744;2023-04-29T12:56:30;97204.25;;;12.52;64.62
70589;BME280;58152;49.202;18.744;2023-04-29T12:58:56;97202.56;;;12.51;64.27
70589;BME280;58152;49.202;18.744;2023-04-29T13:01:31;97192.28;;;12.46;64.90
70589;BME280;58152;49.202;18.744;2023-04-29T13:03:59;97205.19;;;12.51;64.79
70589;BME280;58152;49.202;18.744;2023-04-29T13:06:24;97196.41;;;12.51;65.43
70589;BME280;58152;49.202;18.744;2023-04-29T13:08:49;97201.78;;;12.49;65.42
70589;BME280;58152;49.202;18.744;2023-04-29T13:11:16;97198.16;;;12.52;65.51
70589;BME280;58152;49.202;18.744;2023-04-29T13:13:41;97179.88;;;12.49;65.57
70589;BME280;58152;49.202;18.744;2023-04-29T13:16:07;97182.41;;;12.50;66.33
70589;BME280;58152;49.202;18.744;2023-04-29T13:18:32;97177.09;;;12.52;66.20
70589;BME280;58152;49.202;18.744;2023-04-29T13:20:58;97180.31;;;12.57;66.28
70589;BME280;58152;49.202;18.744;2023-04-29T13:23:23;97187.94;;;12.61;67.09
70589;BME280;58152;49.202;18.744;2023-04-29T13:25:49;97170.03;;;12.68;66.62
70589;BME280;58152;49.202;18.744;2023-04-29T13:28:15;97174.34;;;12.85;66.80
70589;BME280;58152;49.202;18.744;2023-04-29T13:30:40;97178.94;;;13.11;66.82
70589;BME280;58152;49.202;18.744;2023-04-29T13:33:06;97176.28;;;13.27;67.00
70589;BME280;58152;49.202;18.744;2023-04-29T13:35:40;97177.53;;;13.36;67.19
70589;BME280;58152;49.202;18.744;2023-04-29T13:38:08;97159.00;;;13.37;67.85
70589;BME280;58152;49.202;18.744;2023-04-29T13:40:39;97152.53;;;13.43;67.92